Time;durP1;ratioP1;P1;durP2;ratioP2;P2;SDS_P1;SDS_P2;PMS_P1;PMS_P2;Temp;Humidity;BMP_temperature;BMP_pressure;BME280_temperature;BME280_humidity;BME280_pressure;Samples;Min_cycle;Max_cycle;Signal;HPM_P1;HPM_P2
2021/01/19 00:01:48;;;;;;;27.57;25.07;;;5.10;99.90;;;;;;5104077;27;20465;-78
2021/01/19 00:04:14;;;;;;;27.00;24.40;;;5.10;99.90;;;;;;5111819;27;20454;-76
2021/01/19 00:06:40;;;;;;;28.47;25.83;;;5.20;99.90;;;;;;5097782;27;20468;-76
2021/01/19 00:09:08;;;;;;;26.93;24.47;;;5.20;99.90;;;;;;5109539;27;20507;-78
2021/01/19 00:11:36;;;;;;;27.00;23.77;;;5.10;99.90;;;;;;5109246;27;20461;-77
2021/01/19 00:14:02;;;;;;;31.40;23.97;;;5.10;99.90;;;;;;5104949;27;20517;-76
2021/01/19 00:16:30;;;;;;;24.53;22.70;;;5.10;99.90;;;;;;5103343;27;20514;-78
2021/01/19 00:18:57;;;;;;;26.17;23.30;;;5.10;99.90;;;;;;5116018;27;20496;-78
2021/01/19 00:21:23;;;;;;;25.77;23.13;;;5.10;99.90;;;;;;5109272;27;20453;-79
2021/01/19 00:23:49;;;;;;;27.77;22.80;;;5.10;99.90;;;;;;5104852;27;20469;-78
2021/01/19 00:26:15;;;;;;;25.30;22.97;;;5.10;99.90;;;;;;5112383;27;21105;-78
2021/01/19 00:28:42;;;;;;;24.20;21.50;;;5.10;99.90;;;;;;5106913;27;20486;-76
2021/01/19 00:31:11;;;;;;;22.83;20.53;;;5.10;99.90;;;;;;5117728;27;20457;-76
2021/01/19 00:33:37;;;;;;;23.27;20.80;;;5.10;99.90;;;;;;5118216;27;20473;-79
2021/01/19 00:36:05;;;;;;;23.10;20.67;;;5.20;99.90;;;;;;5107794;27;20479;-78
2021/01/19 00:38:32;;;;;;;22.50;20.33;;;5.10;99.90;;;;;;5108902;27;20476;-79
2021/01/19 00:41:00;;;;;;;21.57;19.50;;;5.10;99.90;;;;;;5114052;27;20463;-76
2021/01/19 00:43:26;;;;;;;22.20;20.40;;;5.20;99.90;;;;;;5110093;27;20460;-76
2021/01/19 00:45:54;;;;;;;21.57;19.33;;;5.20;99.90;;;;;;5107576;27;20473;-77
2021/01/19 00:48:20;;;;;;;20.43;18.40;;;5.20;99.90;;;;;;5107398;27;20536;-78
2021/01/19 00:50:46;;;;;;;21.20;18.90;;;5.20;99.90;;;;;;5104958;27;20474;-76
2021/01/19 00:53:13;;;;;;;31.97;17.53;;;5.20;99.90;;;;;;5105382;27;20463;-78
2021/01/19 00:55:39;;;;;;;18.87;17.03;;;5.20;99.90;;;;;;5096679;28;20460;-76
2021/01/19 00:58:06;;;;;;;17.70;16.40;;;5.30;99.90;;;;;;5115127;27;20480;-77
2021/01/19 01:00:34;;;;;;;21.13;16.23;;;5.30;99.90;;;;;;5112202;27;20542;-79
2021/01/19 01:03:01;;;;;;;19.53;15.80;;;5.30;99.90;;;;;;5106056;27;20463;-77
2021/01/19 01:05:28;;;;;;;19.30;16.40;;;5.20;99.90;;;;;;5107202;27;20469;-80
2021/01/19 01:07:55;;;;;;;16.87;15.43;;;5.20;99.90;;;;;;5113151;27;20456;-80
2021/01/19 01:10:21;;;;;;;18.07;16.43;;;5.20;99.90;;;;;;5104540;27;20461;-79
2021/01/19 01:12:48;;;;;;;17.83;16.03;;;5.20;99.90;;;;;;5103288;27;20511;-77
2021/01/19 01:15:20;;;;;;;18.43;16.33;;;5.20;99.90;;;;;;5106340;27;20540;-78
2021/01/19 01:17:46;;;;;;;15.80;14.70;;;5.20;99.90;;;;;;5105502;27;20502;-77
2021/01/19 01:20:14;;;;;;;16.77;15.67;;;5.20;99.90;;;;;;5100199;27;20828;-79
2021/01/19 01:22:41;;;;;;;17.50;16.17;;;5.20;99.90;;;;;;5105357;27;20457;-77
2021/01/19 01:25:10;;;;;;;20.17;16.00;;;5.20;99.90;;;;;;5103776;28;20514;-79
2021/01/19 01:27:37;;;;;;;18.47;16.07;;;5.20;99.90;;;;;;5107690;28;20948;-78
2021/01/19 01:30:05;;;;;;;16.73;15.43;;;5.20;99.90;;;;;;5101210;28;20844;-79
2021/01/19 01:32:32;;;;;;;17.00;15.77;;;5.20;99.90;;;;;;5100176;28;20540;-78
2021/01/19 01:35:00;;;;;;;17.07;15.73;;;5.20;99.90;;;;;;5094174;28;20458;-77
2021/01/19 01:37:28;;;;;;;16.50;15.13;;;5.20;99.90;;;;;;5110388;27;20458;-80
2021/01/19 01:39:54;;;;;;;17.77;16.23;;;5.20;99.90;;;;;;5106465;28;20493;-77
2021/01/19 01:42:21;;;;;;;17.03;15.77;;;5.20;99.90;;;;;;5097550;28;20829;-80
2021/01/19 01:44:48;;;;;;;16.67;15.27;;;5.20;99.90;;;;;;5100028;28;20468;-78
2021/01/19 01:47:20;;;;;;;16.83;15.63;;;5.20;99.90;;;;;;5103290;27;20469;-80
2021/01/19 01:49:46;;;;;;;17.57;16.03;;;5.10;99.90;;;;;;5105989;28;20482;-81
2021/01/19 01:52:14;;;;;;;17.20;15.67;;;5.10;99.90;;;;;;5103916;28;20482;-77
2021/01/19 01:54:42;;;;;;;17.67;16.23;;;5.10;99.90;;;;;;5101640;28;20522;-79
2021/01/19 01:57:08;;;;;;;16.37;14.97;;;4.90;99.90;;;;;;5102134;28;20967;-77
2021/01/19 01:59:35;;;;;;;16.47;15.37;;;5.00;99.90;;;;;;5102226;28;20497;-77
2021/01/19 02:02:09;;;;;;;16.50;15.30;;;4.90;99.90;;;;;;5098951;28;20823;-77
2021/01/19 02:04:35;;;;;;;17.60;16.10;;;4.80;99.90;;;;;;5101512;28;20480;-77
2021/01/19 02:07:05;;;;;;;16.73;15.50;;;4.80;99.90;;;;;;5100803;28;20830;-76
2021/01/19 02:09:40;;;;;;;17.60;16.10;;;4.80;99.90;;;;;;5105399;28;20500;-81
2021/01/19 02:12:17;;;;;;;17.53;15.23;;;4.80;99.90;;;;;;5101900;28;20826;-77
2021/01/19 02:14:54;;;;;;;16.73;15.50;;;4.70;99.90;;;;;;5096628;28;20456;-79
2021/01/19 02:17:27;;;;;;;16.80;15.43;;;4.70;99.90;;;;;;5103041;28;20457;-78
2021/01/19 02:20:15;;;;;;;16.47;15.40;;;4.70;99.90;;;;;;5101083;28;21018;-80
2021/01/19 02:23:08;;;;;;;18.83;16.53;;;4.70;99.90;;;;;;5093131;28;20462;-76
2021/01/19 02:26:03;;;;;;;21.27;16.27;;;4.70;99.90;;;;;;5105947;27;20506;-81
2021/01/19 02:28:37;;;;;;;15.10;14.00;;;4.70;99.90;;;;;;5106658;27;20472;-76
2021/01/19 02:31:18;;;;;;;16.17;14.90;;;4.60;99.90;;;;;;5110635;27;20514;-80
2021/01/19 02:34:04;;;;;;;17.30;15.67;;;4.60;99.90;;;;;;5111980;27;20447;-80
2021/01/19 02:36:36;;;;;;;15.73;14.80;;;4.60;99.90;;;;;;5105297;27;20457;-80
2021/01/19 02:39:05;;;;;;;18.00;16.23;;;4.60;99.90;;;;;;5103352;27;20485;-77
2021/01/19 02:41:33;;;;;;;17.03;15.23;;;4.50;99.90;;;;;;5111519;27;20462;-76
2021/01/19 02:44:08;;;;;;;15.73;14.70;;;4.60;99.90;;;;;;5102988;27;20453;-77
2021/01/19 02:46:35;;;;;;;17.17;15.30;;;4.60;99.90;;;;;;5104070;28;20830;-79
2021/01/19 02:49:02;;;;;;;16.83;15.30;;;4.50;99.90;;;;;;5114962;27;20477;-81
2021/01/19 02:51:29;;;;;;;16.03;14.70;;;4.60;99.90;;;;;;5112476;27;20456;-77
2021/01/19 02:53:57;;;;;;;17.33;16.10;;;4.60;99.90;;;;;;5103855;27;20468;-79
2021/01/19 02:56:32;;;;;;;17.17;15.80;;;4.60;99.90;;;;;;5102538;27;20466;-76
2021/01/19 02:59:09;;;;;;;16.03;14.80;;;4.60;99.90;;;;;;5109451;27;20484;-80
2021/01/19 03:01:43;;;;;;;16.60;15.30;;;4.60;99.90;;;;;;5096928;27;20579;-79
2021/01/19 03:04:13;;;;;;;17.23;15.33;;;4.50;99.90;;;;;;5102514;27;20457;-80
2021/01/19 03:06:42;;;;;;;16.10;14.90;;;4.50;99.90;;;;;;5103561;27;20461;-79
2021/01/19 03:09:10;;;;;;;15.60;14.60;;;4.60;99.90;;;;;;5103071;28;20469;-79
2021/01/19 03:11:37;;;;;;;18.37;15.30;;;4.60;99.90;;;;;;5102534;27;20523;-77
2021/01/19 03:14:07;;;;;;;16.97;15.10;;;4.60;99.90;;;;;;5099811;27;20492;-76
2021/01/19 03:16:33;;;;;;;17.30;15.67;;;4.70;99.90;;;;;;5106226;27;20458;-77
2021/01/19 03:18:59;;;;;;;17.10;15.67;;;4.70;99.90;;;;;;5110856;27;20493;-79
2021/01/19 03:21:26;;;;;;;27.80;16.10;;;4.70;99.90;;;;;;5105369;27;20954;-78
2021/01/19 03:23:55;;;;;;;17.37;15.90;;;4.70;99.90;;;;;;5099935;27;20453;-76
2021/01/19 03:26:21;;;;;;;18.00;16.07;;;4.70;99.90;;;;;;5107693;27;20461;-78
2021/01/19 03:28:47;;;;;;;16.60;15.43;;;4.80;99.90;;;;;;5108454;27;20998;-77
2021/01/19 03:31:14;;;;;;;16.90;15.80;;;4.80;99.90;;;;;;5101687;28;21051;-76
2021/01/19 03:33:41;;;;;;;17.17;15.40;;;4.90;99.90;;;;;;5103323;27;20461;-79
2021/01/19 03:36:08;;;;;;;17.20;15.47;;;4.90;99.90;;;;;;5106776;28;20472;-76
2021/01/19 03:38:35;;;;;;;17.00;15.40;;;5.00;99.90;;;;;;5105044;27;20480;-79
2021/01/19 03:41:02;;;;;;;16.40;15.10;;;5.00;99.90;;;;;;5102539;28;20457;-80
2021/01/19 03:43:29;;;;;;;16.33;15.00;;;5.10;99.90;;;;;;5113002;28;20817;-77
2021/01/19 03:45:56;;;;;;;17.10;15.80;;;5.10;99.90;;;;;;5104601;28;20458;-81
2021/01/19 03:48:22;;;;;;;18.30;15.57;;;5.10;99.90;;;;;;5104014;28;21084;-81
2021/01/19 03:50:48;;;;;;;15.77;14.57;;;5.10;99.90;;;;;;5101475;28;20457;-82
2021/01/19 03:53:16;;;;;;;17.77;16.10;;;5.10;99.90;;;;;;5102950;28;20471;-77
2021/01/19 03:55:45;;;;;;;17.07;15.57;;;5.10;99.90;;;;;;5098331;28;20581;-77
2021/01/19 03:58:12;;;;;;;16.57;15.37;;;5.10;99.90;;;;;;5107384;27;20475;-79
2021/01/19 04:00:38;;;;;;;17.53;15.80;;;5.10;99.90;;;;;;5102903;28;20555;-77
2021/01/19 04:03:05;;;;;;;17.33;15.63;;;5.10;99.90;;;;;;5100977;28;20464;-78
2021/01/19 04:05:31;;;;;;;18.03;16.20;;;5.00;99.90;;;;;;5098372;28;20934;-82
2021/01/19 04:07:57;;;;;;;16.80;15.40;;;5.10;99.90;;;;;;5110030;28;20461;-78
2021/01/19 04:10:24;;;;;;;16.00;15.00;;;5.10;99.90;;;;;;5100066;28;20462;-80
2021/01/19 04:12:52;;;;;;;20.40;15.00;;;5.20;99.90;;;;;;5106788;27;20464;-79
2021/01/19 04:15:19;;;;;;;16.93;15.73;;;5.20;99.90;;;;;;5103253;28;20453;-81
2021/01/19 04:17:46;;;;;;;16.27;15.07;;;5.20;99.90;;;;;;5102392;28;20878;-79
2021/01/19 04:20:12;;;;;;;16.50;14.80;;;5.20;99.90;;;;;;5103008;28;20502;-80
2021/01/19 04:22:38;;;;;;;15.83;14.40;;;5.30;99.90;;;;;;5103227;28;20484;-80
2021/01/19 04:25:06;;;;;;;16.07;14.90;;;5.40;99.90;;;;;;5096187;28;20944;-77
2021/01/19 04:27:33;;;;;;;15.87;14.67;;;5.40;99.90;;;;;;5099907;28;21171;-79
2021/01/19 04:30:03;;;;;;;15.97;14.43;;;5.50;99.90;;;;;;5115567;27;20511;-76
2021/01/19 04:32:30;;;;;;;15.13;13.93;;;5.60;99.90;;;;;;5113693;27;20452;-78
2021/01/19 04:34:56;;;;;;;16.73;15.00;;;5.60;99.90;;;;;;5106270;27;21132;-77
2021/01/19 04:37:22;;;;;;;16.33;14.73;;;5.50;99.90;;;;;;5103214;27;20824;-77
2021/01/19 04:39:48;;;;;;;15.83;14.40;;;5.60;99.90;;;;;;5101242;27;20977;-81
2021/01/19 04:42:18;;;;;;;16.67;14.83;;;5.60;99.90;;;;;;5110106;27;20956;-77
2021/01/19 04:44:45;;;;;;;15.60;14.20;;;5.60;99.90;;;;;;5101137;27;20510;-82
2021/01/19 04:47:14;;;;;;;16.23;14.50;;;5.60;99.90;;;;;;5108755;27;20458;-79
2021/01/19 04:49:42;;;;;;;16.00;14.50;;;5.70;99.90;;;;;;5112946;27;20839;-82
2021/01/19 04:52:13;;;;;;;15.53;14.43;;;5.70;99.90;;;;;;5103628;27;20453;-81
2021/01/19 04:54:57;;;;;;;17.47;14.50;;;5.80;99.90;;;;;;5107927;27;20941;-77
2021/01/19 04:57:31;;;;;;;15.57;14.27;;;5.80;99.90;;;;;;5105067;27;20452;-77
2021/01/19 05:00:02;;;;;;;19.63;14.87;;;5.80;99.90;;;;;;5102845;27;20491;-81
2021/01/19 05:03:01;;;;;;;16.00;14.43;;;5.90;99.90;;;;;;5096483;27;20465;-78
2021/01/19 05:05:58;;;;;;;14.93;13.77;;;5.90;99.90;;;;;;5107908;27;20453;-80
2021/01/19 05:08:27;;;;;;;15.20;13.93;;;5.90;99.90;;;;;;5105701;27;20982;-76
2021/01/19 05:10:59;;;;;;;18.40;17.00;;;5.90;99.90;;;;;;5106970;27;20462;-76
2021/01/19 05:13:55;;;;;;;19.60;18.10;;;5.90;99.90;;;;;;5107340;27;20487;-76
2021/01/19 05:16:23;;;;;;;21.20;19.50;;;5.80;99.90;;;;;;5104724;27;20450;-76
2021/01/19 05:18:50;;;;;;;21.07;19.37;;;5.70;99.90;;;;;;5098951;27;20972;-76
2021/01/19 05:21:18;;;;;;;21.23;19.67;;;5.70;99.90;;;;;;5101512;27;20485;-75
2021/01/19 05:23:45;;;;;;;22.47;20.73;;;5.70;99.90;;;;;;5094971;27;20462;-74
2021/01/19 05:26:14;;;;;;;21.30;19.90;;;5.70;99.90;;;;;;5109576;27;20522;-76
2021/01/19 05:28:43;;;;;;;24.43;22.53;;;5.60;99.90;;;;;;5107394;27;20554;-75
2021/01/19 05:31:29;;;;;;;25.00;23.17;;;5.70;99.90;;;;;;5105823;27;20465;-76
2021/01/19 05:34:06;;;;;;;25.00;23.00;;;5.70;99.90;;;;;;5102296;27;20475;-76
2021/01/19 05:36:38;;;;;;;25.77;23.77;;;5.60;99.90;;;;;;5105198;27;20460;-77
2021/01/19 05:39:07;;;;;;;25.73;23.47;;;5.70;99.90;;;;;;5106974;27;20558;-76
2021/01/19 05:41:37;;;;;;;25.73;23.63;;;5.70;99.90;;;;;;5107717;27;20454;-76
2021/01/19 05:44:12;;;;;;;25.60;23.40;;;5.60;99.90;;;;;;5106064;27;21010;-76
2021/01/19 05:46:42;;;;;;;27.40;25.00;;;5.60;99.90;;;;;;5108774;27;20485;-75
2021/01/19 05:49:16;;;;;;;25.80;23.87;;;5.60;99.90;;;;;;5108684;27;20516;-76
2021/01/19 05:51:45;;;;;;;25.83;23.83;;;5.60;99.90;;;;;;5097782;28;20817;-76
2021/01/19 05:54:21;;;;;;;26.17;24.00;;;5.60;99.90;;;;;;5104492;27;20870;-76
2021/01/19 05:56:50;;;;;;;30.90;25.30;;;5.60;99.90;;;;;;5111014;27;20548;-76
2021/01/19 05:59:30;;;;;;;27.47;25.40;;;5.70;99.90;;;;;;5108109;27;20954;-76
2021/01/19 06:01:58;;;;;;;28.07;25.37;;;5.60;99.90;;;;;;5103236;27;20458;-75
2021/01/19 06:04:31;;;;;;;26.20;24.20;;;5.70;99.90;;;;;;5108668;27;20462;-76
2021/01/19 06:06:58;;;;;;;26.20;24.20;;;5.60;99.90;;;;;;5107560;27;20989;-76
2021/01/19 06:09:25;;;;;;;26.40;24.40;;;5.60;99.90;;;;;;5100314;27;21049;-78
2021/01/19 06:11:52;;;;;;;24.50;22.80;;;5.60;99.90;;;;;;5108711;27;20985;-76
2021/01/19 06:14:22;;;;;;;25.93;23.93;;;5.60;99.90;;;;;;5104568;27;20862;-76
2021/01/19 06:16:49;;;;;;;25.73;23.50;;;5.60;99.90;;;;;;5100489;28;21050;-77
2021/01/19 06:19:29;;;;;;;24.50;22.70;;;5.70;99.90;;;;;;5107137;27;20494;-76
2021/01/19 06:21:57;;;;;;;25.77;23.73;;;5.60;99.90;;;;;;5106927;27;20465;-76
2021/01/19 06:24:34;;;;;;;26.20;23.67;;;5.60;99.90;;;;;;5101938;27;20463;-76
2021/01/19 06:27:00;;;;;;;25.13;23.00;;;5.60;99.90;;;;;;5101121;27;20461;-77
2021/01/19 06:29:28;;;;;;;23.87;22.07;;;5.70;99.90;;;;;;5102062;27;20481;-77
2021/01/19 06:31:56;;;;;;;25.20;23.30;;;5.70;99.90;;;;;;5104652;27;20994;-78
2021/01/19 06:34:29;;;;;;;25.03;23.00;;;5.70;99.90;;;;;;5106058;28;20489;-77
2021/01/19 06:36:55;;;;;;;25.43;23.10;;;5.70;99.90;;;;;;5105852;27;20511;-76
2021/01/19 06:39:29;;;;;;;25.90;23.90;;;5.60;99.90;;;;;;5097496;28;20481;-76
2021/01/19 06:42:07;;;;;;;25.80;23.83;;;5.70;99.90;;;;;;5104048;28;20457;-76
2021/01/19 06:44:44;;;;;;;26.20;23.73;;;5.70;99.90;;;;;;5097382;28;20824;-75
2021/01/19 06:47:12;;;;;;;25.43;23.37;;;5.70;99.90;;;;;;5103680;28;20466;-76
2021/01/19 06:49:40;;;;;;;25.50;23.40;;;5.70;99.90;;;;;;5106605;28;21102;-75
2021/01/19 06:52:09;;;;;;;25.93;23.60;;;5.70;99.90;;;;;;5102962;28;20525;-75
2021/01/19 06:55:02;;;;;;;26.20;23.87;;;5.70;99.90;;;;;;5097774;28;20457;-75
2021/01/19 06:57:32;;;;;;;24.83;22.83;;;5.70;99.90;;;;;;5097846;28;20535;-75
2021/01/19 07:00:10;;;;;;;24.40;22.70;;;5.60;99.90;;;;;;5095832;28;21019;-75
2021/01/19 07:02:38;;;;;;;25.93;23.53;;;5.70;99.90;;;;;;5091174;28;20453;-75
2021/01/19 07:05:10;;;;;;;25.70;23.60;;;5.70;99.90;;;;;;5102982;28;20465;-75
2021/01/19 07:07:41;;;;;;;25.47;23.40;;;5.60;99.90;;;;;;5103435;28;20457;-75
2021/01/19 07:10:14;;;;;;;25.40;23.23;;;5.60;99.90;;;;;;5101749;28;20867;-76
2021/01/19 07:13:06;;;;;;;24.57;22.67;;;5.60;99.90;;;;;;5103138;28;20932;-76
2021/01/19 07:16:05;;;;;;;24.97;23.13;;;5.60;99.90;;;;;;5103046;28;20540;-76
2021/01/19 07:19:08;;;;;;;24.80;22.47;;;5.60;99.90;;;;;;5100575;28;20462;-75
2021/01/19 07:22:03;;;;;;;24.97;23.07;;;5.50;99.90;;;;;;5090290;28;20807;-76
2021/01/19 07:24:42;;;;;;;25.30;22.73;;;5.50;99.90;;;;;;5096212;28;20460;-76
2021/01/19 07:27:10;;;;;;;25.53;23.37;;;5.50;99.90;;;;;;5102386;28;20463;-75
2021/01/19 07:29:38;;;;;;;24.80;22.70;;;5.50;99.90;;;;;;5094233;28;20481;-76
2021/01/19 07:32:10;;;;;;;26.20;23.60;;;5.50;99.90;;;;;;5097225;28;20792;-74
2021/01/19 07:34:40;;;;;;;25.10;23.17;;;5.50;99.90;;;;;;5110033;27;20461;-75
2021/01/19 07:37:07;;;;;;;24.77;22.60;;;5.50;99.90;;;;;;5105416;27;20450;-76
2021/01/19 07:39:35;;;;;;;25.97;23.70;;;5.50;99.90;;;;;;5096216;28;20508;-75
2021/01/19 07:42:13;;;;;;;24.20;22.30;;;5.50;99.90;;;;;;5106405;27;20453;-76
2021/01/19 07:44:39;;;;;;;23.60;21.73;;;5.50;99.90;;;;;;5101630;28;20463;-75
2021/01/19 07:47:33;;;;;;;23.70;21.83;;;5.50;99.90;;;;;;5101602;28;20553;-75
2021/01/19 07:50:03;;;;;;;25.30;22.67;;;5.50;99.90;;;;;;5107096;28;20837;-75
2021/01/19 07:52:37;;;;;;;25.30;23.40;;;5.50;99.90;;;;;;5111351;28;20475;-76
2021/01/19 07:55:18;;;;;;;25.70;23.60;;;5.50;99.90;;;;;;5100942;28;20456;-75
2021/01/19 07:57:45;;;;;;;24.30;22.70;;;5.50;99.90;;;;;;5098840;28;20498;-74
2021/01/19 08:00:13;;;;;;;22.93;21.43;;;5.50;99.90;;;;;;5098752;28;20497;-75
2021/01/19 08:02:39;;;;;;;23.83;22.00;;;5.50;99.90;;;;;;5103309;28;20511;-76
2021/01/19 08:05:08;;;;;;;23.60;21.90;;;5.50;99.90;;;;;;5104904;27;20460;-76
2021/01/19 08:07:40;;;;;;;23.80;21.90;;;5.60;99.90;;;;;;5103830;27;20504;-75
2021/01/19 08:10:21;;;;;;;24.50;22.63;;;5.50;99.90;;;;;;5111061;27;20452;-74
2021/01/19 08:12:50;;;;;;;24.33;22.53;;;5.60;99.90;;;;;;5101737;27;20458;-75
2021/01/19 08:15:22;;;;;;;22.77;21.37;;;5.50;99.90;;;;;;5106878;28;20505;-75
2021/01/19 08:17:51;;;;;;;24.50;22.90;;;5.50;99.90;;;;;;5096034;27;20461;-76
2021/01/19 08:20:30;;;;;;;22.97;21.20;;;5.60;99.90;;;;;;5100165;27;20519;-75
2021/01/19 08:23:10;;;;;;;24.13;22.33;;;5.50;99.90;;;;;;5101270;27;20469;-75
2021/01/19 08:25:38;;;;;;;22.60;21.20;;;5.60;99.90;;;;;;5104978;27;20464;-76
2021/01/19 08:28:05;;;;;;;24.10;22.50;;;5.50;99.90;;;;;;5111756;27;20480;-76
2021/01/19 08:30:32;;;;;;;23.40;21.83;;;5.60;99.90;;;;;;5103419;27;20541;-76
2021/01/19 08:33:00;;;;;;;31.23;22.70;;;5.50;99.90;;;;;;5103896;27;20485;-76
2021/01/19 08:35:29;;;;;;;23.53;21.90;;;5.50;99.90;;;;;;5099386;27;20472;-76
2021/01/19 08:37:57;;;;;;;23.17;21.77;;;5.60;99.90;;;;;;5104577;27;20464;-76
2021/01/19 08:40:28;;;;;;;24.70;22.90;;;5.60;99.90;;;;;;5104020;27;20469;-76
2021/01/19 08:42:55;;;;;;;24.37;22.27;;;5.60;99.90;;;;;;5096618;27;20479;-77
2021/01/19 08:45:28;;;;;;;23.23;21.70;;;5.60;99.90;;;;;;5111272;27;20527;-77
2021/01/19 08:47:58;;;;;;;23.10;21.57;;;5.50;99.90;;;;;;5109282;27;20527;-76
2021/01/19 08:50:27;;;;;;;22.93;21.33;;;5.60;99.90;;;;;;5101111;27;20453;-77
2021/01/19 08:52:54;;;;;;;24.13;22.33;;;5.60;99.90;;;;;;5109848;27;20810;-75
2021/01/19 08:55:22;;;;;;;25.53;22.93;;;5.60;99.90;;;;;;5114828;27;20463;-75
2021/01/19 08:57:54;;;;;;;24.27;22.47;;;5.60;99.90;;;;;;5108361;27;20466;-75
2021/01/19 09:00:25;;;;;;;23.87;22.27;;;5.50;99.90;;;;;;5110645;27;20485;-75
2021/01/19 09:02:53;;;;;;;23.73;22.07;;;5.60;99.90;;;;;;5109112;27;20821;-76
2021/01/19 09:05:31;;;;;;;23.13;21.53;;;5.60;99.90;;;;;;5104915;27;20463;-75
2021/01/19 09:07:58;;;;;;;23.43;21.73;;;5.50;99.90;;;;;;5093999;28;20462;-75
2021/01/19 09:10:29;;;;;;;24.00;22.00;;;5.50;99.90;;;;;;5098679;28;20460;-75
2021/01/19 09:12:57;;;;;;;22.60;21.20;;;5.60;99.90;;;;;;5116744;27;20464;-76
2021/01/19 09:15:24;;;;;;;22.00;20.50;;;5.50;99.90;;;;;;5113470;27;20494;-75
2021/01/19 09:17:55;;;;;;;23.53;21.30;;;5.50;99.90;;;;;;5108663;27;20485;-75
2021/01/19 09:20:23;;;;;;;23.57;21.97;;;5.50;99.90;;;;;;5102701;27;20512;-75
2021/01/19 09:22:49;;;;;;;24.07;22.37;;;5.50;99.90;;;;;;5098689;27;20494;-75
2021/01/19 09:25:19;;;;;;;23.57;21.87;;;5.50;99.90;;;;;;5103280;27;20469;-76
2021/01/19 09:27:46;;;;;;;23.43;21.60;;;5.50;99.90;;;;;;5099077;27;20484;-76
2021/01/19 09:30:16;;;;;;;23.30;21.70;;;5.50;99.90;;;;;;5098078;27;20816;-76
2021/01/19 09:32:44;;;;;;;24.50;22.70;;;5.60;99.90;;;;;;5093924;27;20965;-76
2021/01/19 09:35:12;;;;;;;24.30;22.60;;;5.60;99.90;;;;;;5103559;27;20461;-76
2021/01/19 09:37:39;;;;;;;23.60;22.00;;;5.60;99.90;;;;;;5100308;27;20462;-76
2021/01/19 09:40:07;;;;;;;24.50;22.77;;;5.60;99.90;;;;;;5095525;27;20582;-75
2021/01/19 09:42:36;;;;;;;23.50;22.00;;;5.70;99.90;;;;;;5081926;28;20466;-75
2021/01/19 09:45:06;;;;;;;22.73;21.33;;;5.70;99.90;;;;;;5103143;27;20460;-76
2021/01/19 09:47:33;;;;;;;23.93;21.80;;;5.80;99.90;;;;;;5088162;27;20466;-75
2021/01/19 09:50:00;;;;;;;23.40;21.77;;;5.80;99.90;;;;;;5097465;27;20458;-76
2021/01/19 09:52:30;;;;;;;22.73;21.20;;;5.80;99.90;;;;;;5101252;27;20473;-75
2021/01/19 09:55:06;;;;;;;22.03;20.63;;;5.90;99.90;;;;;;5095110;27;20489;-76
2021/01/19 09:57:32;;;;;;;22.90;21.40;;;5.90;99.90;;;;;;5108058;27;20475;-75
2021/01/19 09:59:59;;;;;;;22.03;20.63;;;6.00;99.90;;;;;;5104872;28;20497;-75
2021/01/19 10:02:29;;;;;;;21.63;20.33;;;6.00;99.90;;;;;;5101446;27;20472;-76
2021/01/19 10:05:00;;;;;;;22.37;20.93;;;6.10;99.90;;;;;;5103434;28;20494;-76
2021/01/19 10:07:30;;;;;;;23.30;21.40;;;6.10;99.90;;;;;;5105052;27;20461;-76
2021/01/19 10:10:07;;;;;;;23.17;21.37;;;6.10;99.90;;;;;;5116721;27;20941;-76
2021/01/19 10:12:33;;;;;;;23.30;21.80;;;6.10;99.90;;;;;;5116851;27;20866;-76
2021/01/19 10:15:00;;;;;;;23.00;21.50;;;6.10;99.90;;;;;;5113806;27;20464;-76
2021/01/19 10:17:31;;;;;;;23.07;21.63;;;6.10;99.90;;;;;;5098416;27;20461;-76
2021/01/19 10:20:10;;;;;;;23.77;22.17;;;6.10;99.90;;;;;;5096148;27;20484;-76
2021/01/19 10:22:42;;;;;;;24.00;22.40;;;6.10;99.90;;;;;;5108498;27;20806;-76
2021/01/19 10:25:10;;;;;;;23.83;22.33;;;6.00;99.90;;;;;;5106430;27;20901;-76
2021/01/19 10:27:42;;;;;;;23.10;21.60;;;6.10;99.90;;;;;;5096483;27;20843;-77
2021/01/19 10:30:10;;;;;;;23.90;22.10;;;6.10;99.90;;;;;;5088491;27;20542;-77
2021/01/19 10:32:49;;;;;;;23.97;22.27;;;6.10;99.90;;;;;;5091995;28;20476;-77
2021/01/19 10:35:28;;;;;;;23.20;21.60;;;6.10;99.90;;;;;;5097434;27;20457;-77
2021/01/19 10:37:57;;;;;;;23.30;21.63;;;6.10;99.90;;;;;;5091429;27;20452;-76
2021/01/19 10:40:24;;;;;;;22.77;21.27;;;6.10;99.90;;;;;;5094109;27;20940;-77
2021/01/19 10:42:51;;;;;;;21.80;20.40;;;6.10;99.90;;;;;;5109814;27;20461;-77
2021/01/19 10:45:24;;;;;;;22.57;21.07;;;6.20;99.90;;;;;;5101936;27;20486;-77
2021/01/19 10:47:51;;;;;;;22.90;21.30;;;6.30;99.90;;;;;;5098484;27;20819;-77
2021/01/19 10:50:20;;;;;;;21.67;19.83;;;6.30;99.90;;;;;;5101086;27;21027;-77
2021/01/19 10:52:54;;;;;;;20.70;19.40;;;6.50;99.90;;;;;;5106774;27;20496;-78
2021/01/19 10:55:21;;;;;;;20.97;19.40;;;6.50;99.90;;;;;;5101879;27;20465;-78
2021/01/19 10:57:48;;;;;;;20.00;18.70;;;6.60;99.90;;;;;;5101639;27;20513;-77
2021/01/19 11:00:16;;;;;;;18.70;17.60;;;6.60;99.90;;;;;;5097993;27;20498;-77
2021/01/19 11:02:42;;;;;;;18.37;16.90;;;6.70;99.90;;;;;;5104599;27;20464;-78
2021/01/19 11:05:10;;;;;;;16.70;15.80;;;6.70;99.90;;;;;;5096895;27;20458;-77
2021/01/19 11:07:37;;;;;;;16.60;15.70;;;6.70;99.90;;;;;;5091362;27;20458;-78
2021/01/19 11:10:03;;;;;;;16.77;15.87;;;6.70;99.90;;;;;;5100520;27;20472;-78
2021/01/19 11:12:30;;;;;;;16.23;15.33;;;6.80;99.90;;;;;;5106585;27;21095;-79
2021/01/19 11:14:57;;;;;;;16.70;15.70;;;6.70;99.90;;;;;;5105967;27;20464;-79
2021/01/19 11:17:25;;;;;;;16.60;15.70;;;6.80;99.90;;;;;;5094920;28;20838;-78
2021/01/19 11:19:51;;;;;;;16.23;15.20;;;6.80;99.90;;;;;;5093228;27;20489;-78
2021/01/19 11:22:21;;;;;;;15.67;14.87;;;6.90;99.90;;;;;;5093033;28;20967;-80
2021/01/19 11:24:53;;;;;;;15.63;14.83;;;6.90;99.90;;;;;;5087099;28;21215;-80
2021/01/19 11:27:20;;;;;;;15.23;14.43;;;7.00;99.90;;;;;;5097169;27;20561;-79
2021/01/19 11:29:46;;;;;;;15.47;14.73;;;7.10;99.90;;;;;;5095922;28;20834;-78
2021/01/19 11:32:13;;;;;;;15.20;14.50;;;7.10;99.90;;;;;;5092692;27;20464;-76
2021/01/19 11:34:41;;;;;;;14.70;14.00;;;7.20;99.90;;;;;;5090459;27;20535;-77
2021/01/19 11:37:08;;;;;;;15.10;14.30;;;7.20;99.90;;;;;;5094703;28;20831;-77
2021/01/19 11:39:35;;;;;;;14.47;13.77;;;7.20;99.90;;;;;;5091427;28;20473;-77
2021/01/19 11:42:01;;;;;;;15.03;14.23;;;7.20;99.90;;;;;;5106507;27;20479;-76
2021/01/19 11:44:27;;;;;;;14.63;13.93;;;7.30;99.90;;;;;;5102529;28;20465;-77
2021/01/19 11:46:54;;;;;;;14.73;13.73;;;7.40;99.90;;;;;;5098819;28;20493;-77
2021/01/19 11:49:20;;;;;;;14.50;13.50;;;7.40;99.90;;;;;;5093810;28;20565;-76
2021/01/19 11:51:47;;;;;;;14.60;13.90;;;7.40;99.90;;;;;;5093137;28;20954;-77
2021/01/19 11:54:15;;;;;;;14.70;13.90;;;7.40;99.90;;;;;;5093926;28;21040;-76
2021/01/19 11:56:44;;;;;;;14.30;13.60;;;7.40;99.90;;;;;;5096227;28;20461;-77
2021/01/19 11:59:12;;;;;;;16.07;15.07;;;7.40;99.90;;;;;;5098272;28;20514;-76
2021/01/19 12:01:39;;;;;;;16.33;15.43;;;7.40;99.90;;;;;;5104217;28;20526;-76
2021/01/19 12:04:08;;;;;;;15.47;14.67;;;7.50;99.90;;;;;;5096421;28;21100;-76
2021/01/19 12:06:35;;;;;;;15.87;15.00;;;7.40;99.90;;;;;;5096858;28;20514;-77
2021/01/19 12:09:03;;;;;;;16.13;15.23;;;7.40;99.90;;;;;;5095649;28;20561;-77
2021/01/19 12:11:30;;;;;;;14.77;14.07;;;7.50;99.90;;;;;;5097169;28;20449;-78
2021/01/19 12:13:57;;;;;;;14.80;14.00;;;7.50;99.90;;;;;;5089435;28;20470;-77
2021/01/19 12:16:25;;;;;;;15.00;14.20;;;7.60;99.90;;;;;;5094059;28;20466;-78
2021/01/19 12:18:52;;;;;;;14.90;14.00;;;7.60;99.90;;;;;;5100376;28;20454;-77
2021/01/19 12:21:20;;;;;;;15.40;14.60;;;7.70;99.90;;;;;;5098541;28;20492;-77
2021/01/19 12:23:47;;;;;;;15.13;14.43;;;7.70;99.90;;;;;;5088872;28;20561;-78
2021/01/19 12:26:15;;;;;;;16.50;15.50;;;7.70;99.90;;;;;;5095957;28;20462;-77
2021/01/19 12:28:42;;;;;;;14.80;14.10;;;7.70;99.90;;;;;;5091497;28;20541;-77
2021/01/19 12:31:10;;;;;;;15.97;14.97;;;7.70;99.90;;;;;;5092919;28;20954;-76
2021/01/19 12:33:36;;;;;;;15.50;14.70;;;7.70;99.90;;;;;;5088193;28;20547;-77
2021/01/19 12:36:03;;;;;;;15.73;14.93;;;7.70;99.90;;;;;;5099489;28;20514;-76
2021/01/19 12:38:29;;;;;;;15.40;14.60;;;7.60;99.90;;;;;;5093467;28;20553;-77
2021/01/19 12:40:56;;;;;;;16.07;15.27;;;7.70;99.90;;;;;;5095410;28;20493;-76
2021/01/19 12:43:22;;;;;;;15.80;15.00;;;7.70;99.90;;;;;;5102232;28;20552;-77
2021/01/19 12:45:49;;;;;;;15.90;15.10;;;7.70;99.90;;;;;;5093355;28;20543;-77
2021/01/19 12:48:17;;;;;;;15.83;15.03;;;7.70;99.90;;;;;;5094468;28;20490;-77
2021/01/19 12:50:46;;;;;;;16.10;15.20;;;7.70;99.90;;;;;;5092773;28;20520;-77